createdAt,value
2023-05-04T00:00:22.904Z,100986.03
2023-05-04T00:02:53.672Z,100979.34
2023-05-04T00:05:24.496Z,100986.19
2023-05-04T00:07:54.784Z,100986.19
2023-05-04T00:10:25.146Z,100993.03
2023-05-04T00:12:56.691Z,100997.75
2023-05-04T00:15:27.511Z,101002.31
2023-05-04T00:17:58.084Z,101009.16
2023-05-04T00:20:28.457Z,101007.03
2023-05-04T00:22:58.898Z,101014.19
2023-05-04T00:25:29.236Z,101006.03
2023-05-04T00:27:59.826Z,101001.97
2023-05-04T00:30:30.141Z,101009.63
2023-05-04T00:33:02.172Z,101012.41
2023-05-04T00:35:34.198Z,101021.84
2023-05-04T00:38:09.089Z,101032.28
2023-05-04T00:40:40.254Z,101028.69
2023-05-04T00:43:11.641Z,101035.50
2023-05-04T00:45:44.335Z,101033.22
2023-05-04T00:48:14.912Z,101038.44
2023-05-04T00:50:45.668Z,101034.19
2023-05-04T00:53:16.133Z,101045.63
2023-05-04T00:55:46.475Z,101044.47
2023-05-04T00:58:17.584Z,101053.56
2023-05-04T01:00:48.093Z,101049.66
2023-05-04T01:03:18.898Z,101044.28
2023-05-04T01:06:18.696Z,101044.59
2023-05-04T01:09:13.409Z,101039.38
2023-05-04T01:11:54.226Z,101047.88
2023-05-04T01:14:25.712Z,101050.47
2023-05-04T01:17:00.266Z,101054.53
2023-05-04T01:19:31.671Z,101053.22
2023-05-04T01:22:02.204Z,101060.06
2023-05-04T01:24:33.343Z,101060.88
2023-05-04T01:27:19.836Z,101060.88
2023-05-04T01:30:08.763Z,101064.78
2023-05-04T01:32:41.076Z,101064.78
2023-05-04T01:35:14.250Z,101068.06
2023-05-04T01:37:44.812Z,101062.84
2023-05-04T01:40:15.479Z,101065.28
2023-05-04T01:42:46.071Z,101072.44
2023-05-04T01:45:16.549Z,101066.56
2023-05-04T01:47:47.891Z,101069.03
2023-05-04T01:50:18.172Z,101068.50
2023-05-04T01:52:49.197Z,101068.53
2023-05-04T01:55:20.052Z,101068.19
2023-05-04T01:57:50.897Z,101060.22
2023-05-04T02:00:22.194Z,101070.47
2023-05-04T02:02:52.526Z,101067.06
2023-05-04T02:05:23.270Z,101065.75
2023-05-04T02:07:53.446Z,101063.28
2023-05-04T02:10:24.112Z,101068.38
2023-05-04T02:12:54.841Z,101072.56
2023-05-04T02:15:26.536Z,101063.28
2023-05-04T02:17:56.984Z,101068.19
2023-05-04T02:20:27.407Z,101061.13
2023-05-04T02:22:57.789Z,101059.03
2023-05-04T02:25:29.064Z,101062.28
2023-05-04T02:27:59.370Z,101058.31
2023-05-04T02:30:29.849Z,101055.88
2023-05-04T02:33:01.189Z,101046.72
2023-05-04T02:35:32.158Z,101045.75
2023-05-04T02:38:03.122Z,101052.25
2023-05-04T02:40:33.459Z,101049.47
2023-05-04T02:43:03.977Z,101059.41
2023-05-04T02:45:38.952Z,101052.91
2023-05-04T03:25:06.551Z,101019.59
2023-05-04T03:27:36.923Z,101008.88
2023-05-04T03:30:08.661Z,101013.28
2023-05-04T03:32:40.057Z,101015.78
2023-05-04T03:35:10.656Z,101012.53
2023-05-04T03:37:41.228Z,101006.97
2023-05-04T03:40:11.821Z,100998.72
2023-05-04T03:42:43.243Z,100997.88
2023-05-04T03:45:14.008Z,100993.97
2023-05-04T03:47:44.593Z,100991.72
2023-05-04T03:50:15.713Z,100981.13
2023-05-04T03:52:46.069Z,100989.13
2023-05-04T03:55:16.362Z,100981.25
2023-05-04T03:57:51.779Z,100981.72
2023-05-04T04:00:22.758Z,100984.03
2023-05-04T04:03:01.234Z,100969.97
2023-05-04T04:05:32.419Z,100961.84
2023-05-04T04:08:03.322Z,100960.56
2023-05-04T04:10:34.128Z,100957.13
2023-05-04T04:13:05.025Z,100964.16
2023-05-04T04:15:35.213Z,100963.16
2023-05-04T04:18:05.744Z,100964.91
2023-05-04T04:20:36.002Z,100964.97
2023-05-04T04:23:06.619Z,100966.34
2023-05-04T04:25:36.916Z,100958.34
2023-05-04T04:28:07.563Z,100957.38
2023-05-04T04:30:38.277Z,100959.91
2023-05-04T04:33:08.705Z,100949.59
2023-05-04T04:35:39.516Z,100954.97
2023-05-04T04:38:10.071Z,100944.22
2023-05-04T04:40:40.322Z,100937.38
2023-05-04T04:43:10.666Z,100937.84
2023-05-04T04:45:43.631Z,100932.16
2023-05-04T04:48:13.893Z,100936.69
2023-05-04T04:50:44.185Z,100926.63
2023-05-04T04:53:14.862Z,100927.78
2023-05-04T04:55:45.426Z,100928.06
2023-05-04T04:58:16.088Z,100929.41
2023-05-04T05:00:47.873Z,100920.59
2023-05-04T05:03:18.841Z,100917.34
2023-05-04T05:05:49.378Z,100909.38
2023-05-04T05:08:19.679Z,100911.13
2023-05-04T05:10:50.100Z,100915.81
2023-05-04T05:13:20.395Z,100907.47
2023-05-04T05:15:50.974Z,100893.94
2023-05-04T05:18:21.326Z,100894.34
2023-05-04T05:20:51.798Z,100878.72
2023-05-04T05:23:22.076Z,100887.44
2023-05-04T05:25:52.302Z,100877.47
2023-05-04T05:28:22.617Z,100875.84
2023-05-04T05:30:54.417Z,100874.97
2023-05-04T05:33:24.767Z,100856.16
2023-05-04T05:35:55.138Z,100855.69
2023-05-04T05:38:25.409Z,100855.91
2023-05-04T05:40:55.911Z,100853.47
2023-05-04T05:43:25.971Z,100836.53
2023-05-04T05:45:56.512Z,100828.53
2023-05-04T05:48:27.007Z,100832.47
2023-05-04T05:50:57.515Z,100825.22
2023-05-04T05:53:27.760Z,100817.84
2023-05-04T05:55:58.238Z,100820.41
2023-05-04T05:58:28.520Z,100807.41
2023-05-04T06:00:58.785Z,100796.59
2023-05-04T06:03:29.041Z,100795.41
2023-05-04T06:05:59.291Z,100791.47
2023-05-04T06:08:29.791Z,100785.94
2023-05-04T14:54:06.931Z,100675.09
2023-05-04T14:56:37.871Z,100682.72
2023-05-04T14:59:08.975Z,100681.09
2023-05-04T15:01:39.345Z,100690.09
2023-05-04T15:04:09.656Z,100691.59
2023-05-04T15:06:40.157Z,100696.78
2023-05-04T15:09:11.780Z,100694.81
2023-05-04T15:11:42.136Z,100695.38
2023-05-04T15:14:12.446Z,100697.34
2023-05-04T15:16:43.176Z,100704.06
2023-05-04T15:19:13.505Z,100699.31
2023-05-04T15:21:44.007Z,100705.69
2023-05-04T15:24:14.375Z,100712.84
2023-05-04T15:26:45.295Z,100717.25
2023-05-04T15:29:15.873Z,100719.09
2023-05-04T15:31:46.067Z,100712.59
2023-05-04T15:34:18.438Z,100715.72
2023-05-04T15:36:49.389Z,100713.44
2023-05-04T15:39:19.901Z,100714.69
2023-05-04T15:41:50.246Z,100725.66
2023-05-04T15:44:23.395Z,100719.66
2023-05-04T15:46:53.692Z,100724.53
2023-05-04T15:49:24.201Z,100732.84
2023-05-04T15:51:55.875Z,100739.53
2023-05-04T15:54:26.797Z,100732.47
2023-05-04T15:56:57.133Z,100738.38
2023-05-04T15:59:27.669Z,100739.53
2023-05-04T16:01:58.108Z,100737.09
2023-05-04T16:04:28.538Z,100735.50
2023-05-04T16:06:59.445Z,100728.34
2023-05-04T16:09:30.509Z,100743.47
2023-05-04T16:12:00.924Z,100735.50
2023-05-04T16:14:31.286Z,100735.03
2023-05-04T16:17:04.978Z,100739.53
2023-05-04T16:19:35.393Z,100735.50
2023-05-04T16:22:05.626Z,100732.25
2023-05-04T16:24:36.783Z,100727.88
2023-05-04T16:27:06.778Z,100734.09
2023-05-04T16:29:36.906Z,100740.09
2023-05-04T16:32:07.456Z,100735.25
2023-05-04T16:34:37.818Z,100732.81
2023-05-04T16:37:10.766Z,100738.38
2023-05-04T16:39:41.395Z,100730.84
2023-05-04T16:42:11.661Z,100728.06
2023-05-04T16:44:42.040Z,100730.84
2023-05-04T16:47:12.168Z,100726.81
2023-05-04T16:49:42.433Z,100727.59
2023-05-04T16:52:12.705Z,100722.53
2023-05-04T16:54:43.786Z,100718.59
2023-05-04T16:57:14.134Z,100717.81
2023-05-04T16:59:44.582Z,100710.63
2023-05-04T17:02:14.902Z,100713.06
2023-05-04T17:04:46.071Z,100718.47
2023-05-04T17:07:16.153Z,100708.19
2023-05-04T17:09:46.311Z,100710.97
2023-05-04T17:12:17.652Z,100707.72
2023-05-04T17:14:48.555Z,100695.16
2023-05-04T17:17:18.983Z,100699.53
2023-05-04T17:19:49.382Z,100697.91
2023-05-04T17:22:19.913Z,100691.53
2023-05-04T17:24:50.273Z,100690.75
2023-05-04T17:27:20.612Z,100694.00
2023-05-04T17:29:50.990Z,100687.63
2023-05-04T17:32:21.309Z,100684.38
2023-05-04T17:34:51.523Z,100683.13
2023-05-04T17:37:21.905Z,100679.66
2023-05-04T17:39:52.243Z,100679.97
2023-05-04T17:42:22.880Z,100680.34
2023-05-04T17:44:53.151Z,100675.59
2023-05-04T17:47:23.581Z,100680.34
2023-05-04T17:49:53.952Z,100673.97
2023-05-04T17:52:24.332Z,100673.97
2023-05-04T17:54:56.263Z,100668.09
2023-05-04T17:57:26.891Z,100663.59
2023-05-04T17:59:57.118Z,100660.47
2023-05-04T18:02:27.528Z,100646.25
2023-05-04T18:04:57.858Z,100650.19
2023-05-04T18:07:28.185Z,100640.25
2023-05-04T18:09:59.023Z,100630.31
2023-05-04T18:12:29.303Z,100639.31
2023-05-04T18:14:59.803Z,100641.41
2023-05-04T18:17:31.760Z,100639.31
2023-05-04T18:20:02.677Z,100639.78
2023-05-04T18:22:33.293Z,100639.31
2023-05-04T18:25:03.868Z,100642.09
2023-05-04T18:27:35.844Z,100640.47
2023-05-04T18:30:07.765Z,100634.44
2023-05-04T18:32:38.911Z,100634.44
2023-05-04T18:35:09.998Z,100627.75
2023-05-04T18:37:40.225Z,100626.13
2023-05-04T18:40:11.131Z,100623.84
2023-05-04T18:42:41.311Z,100618.63
2023-05-04T18:45:13.377Z,100609.50
2023-05-04T18:47:43.734Z,100612.75
2023-05-04T18:50:14.337Z,100604.31
2023-05-04T18:52:44.714Z,100606.25
2023-05-04T18:55:15.031Z,100599.22
2023-05-04T18:57:45.481Z,100598.41
2023-05-04T19:00:16.430Z,100592.88
2023-05-04T19:02:46.785Z,100592.41
2023-05-04T19:05:17.284Z,100580.97
2023-05-04T19:07:47.659Z,100580.84
2023-05-04T19:10:17.960Z,100577.06
2023-05-04T19:12:48.305Z,100566.28
2023-05-04T19:15:18.791Z,100566.66
2023-05-04T19:17:49.229Z,100568.59
2023-05-04T19:20:19.791Z,100561.56
2023-05-04T19:22:50.000Z,100553.56
2023-05-04T19:25:33.313Z,100551.63
2023-05-04T19:28:11.322Z,100548.38
2023-05-04T19:30:42.568Z,100559.13
2023-05-04T19:33:12.565Z,100550.81
2023-05-04T19:35:42.911Z,100545.94
2023-05-04T19:38:13.222Z,100552.31
2023-05-04T19:40:43.508Z,100548.38
2023-05-04T19:43:13.853Z,100550.81
2023-05-04T19:45:44.533Z,100539.72
2023-05-04T19:48:17.423Z,100533.25
2023-05-04T19:50:47.786Z,100538.78
2023-05-04T19:53:18.595Z,100536.47
2023-05-04T19:55:50.627Z,100530.59
2023-05-04T19:58:20.976Z,100523.34
2023-05-04T20:00:51.348Z,100523.75
2023-05-04T20:03:21.910Z,100527.69
2023-05-04T20:05:54.316Z,100516.59
2023-05-04T20:08:24.649Z,100518.22
2023-05-04T20:10:54.938Z,100518.22
2023-05-04T20:13:25.733Z,100523.44
2023-05-04T20:15:56.020Z,100513.50
2023-05-04T20:18:26.328Z,100511.53
2023-05-04T20:20:56.522Z,100515.91
2023-05-04T20:23:26.755Z,100520.66
2023-05-04T20:25:57.323Z,100517.06
2023-05-04T20:28:27.692Z,100525.38
2023-05-04T20:30:58.009Z,100525.38
2023-05-04T20:33:28.408Z,100526.53
2023-05-04T20:35:59.166Z,100530.13
2023-05-04T20:38:29.440Z,100536.16
2023-05-04T20:40:59.969Z,100530.13
2023-05-04T20:43:30.184Z,100530.13
2023-05-04T20:46:00.891Z,100530.94
2023-05-04T20:48:31.308Z,100527.69
2023-05-04T20:51:13.189Z,100530.13
2023-05-04T20:53:44.282Z,100532.81
2023-05-04T20:56:14.677Z,100532.44
2023-05-04T20:58:45.056Z,100530.72
2023-05-04T21:01:15.413Z,100534.75
2023-05-04T21:03:45.664Z,100529.06
2023-05-04T21:06:16.066Z,100531.50
2023-05-04T21:08:46.760Z,100538.69
2023-05-04T21:11:17.154Z,100546.19
2023-05-04T21:13:48.115Z,100538.19
2023-05-04T21:16:18.492Z,100536.13
2023-05-04T21:18:48.798Z,100545.59
2023-05-04T21:21:19.857Z,100548.81
2023-05-04T21:23:50.225Z,100554.69
2023-05-04T21:26:20.571Z,100549.16
2023-05-04T21:28:50.872Z,100547.22
2023-05-04T21:31:22.726Z,100548.00
2023-05-04T21:33:54.074Z,100534.16
2023-05-04T21:36:25.410Z,100545.59
2023-05-04T21:38:57.633Z,100548.81
2023-05-04T21:41:28.056Z,100546.38
2023-05-04T21:43:58.755Z,100536.13
2023-05-04T21:46:29.108Z,100526.50
2023-05-04T21:48:59.433Z,100528.50
2023-05-04T21:51:30.800Z,100531.72
2023-05-04T21:54:01.889Z,100532.06
2023-05-04T21:56:32.311Z,100530.56
2023-05-04T21:59:02.784Z,100526.50
2023-05-04T22:01:33.531Z,100526.97
2023-05-04T22:04:03.997Z,100529.75
2023-05-04T22:06:34.518Z,100532.41
2023-05-04T22:09:05.181Z,100528.03
2023-05-04T22:11:35.898Z,100534.03
2023-05-04T22:14:06.082Z,100537.97
2023-05-04T22:16:36.391Z,100537.50
2023-05-04T22:19:06.941Z,100539.13
2023-05-04T22:21:39.749Z,100535.41
2023-05-04T22:24:10.302Z,100539.78
2023-05-04T22:26:41.020Z,100540.63
2023-05-04T22:29:11.217Z,100548.47
2023-05-04T22:31:41.685Z,100546.38
2023-05-04T22:34:11.990Z,100546.84
2023-05-04T22:36:43.623Z,100549.94
2023-05-04T22:39:14.466Z,100547.19
2023-05-04T22:41:44.926Z,100555.50
2023-05-04T22:44:15.267Z,100562.31
2023-05-04T22:46:45.761Z,100556.88
2023-05-04T22:49:16.826Z,100562.28
2023-05-04T22:51:49.667Z,100557.56
2023-05-04T22:54:20.147Z,100570.59
2023-05-04T22:56:50.365Z,100573.25
2023-05-04T22:59:20.765Z,100571.16
2023-05-04T23:01:52.488Z,100579.63
2023-05-04T23:04:23.091Z,100581.72
2023-05-04T23:06:53.729Z,100573.06
2023-05-04T23:09:23.978Z,100588.91
2023-05-04T23:11:57.708Z,100579.44
2023-05-04T23:14:27.877Z,100584.97
2023-05-04T23:16:58.242Z,100585.88
2023-05-04T23:19:28.899Z,100588.78
2023-05-04T23:22:02.534Z,100592.09
2023-05-04T23:24:32.977Z,100599.25
2023-05-04T23:27:03.311Z,100594.84
2023-05-04T23:29:33.660Z,100605.16
2023-05-04T23:32:04.353Z,100608.94
2023-05-04T23:34:34.862Z,100604.88
2023-05-04T23:37:05.299Z,100618.63
2023-05-04T23:39:35.611Z,100624.84
2023-05-04T23:42:05.991Z,100630.06
2023-05-04T23:44:36.109Z,100625.78
2023-05-04T23:47:06.527Z,100632.34
2023-05-04T23:49:36.872Z,100635.13
2023-05-04T23:52:08.316Z,100640.31
2023-05-04T23:54:38.972Z,100635.91
2023-05-04T23:57:12.341Z,100649.44
2023-05-04T23:59:42.787Z,100653.97
